createdAt,value
2018-10-09T00:00:25.113Z,0.00
2018-10-09T00:01:25.062Z,0.00
2018-10-09T00:02:25.010Z,0.00
2018-10-09T00:03:24.983Z,0.00
2018-10-09T00:04:24.905Z,0.00
2018-10-09T00:05:24.847Z,0.00
2018-10-09T00:06:24.796Z,0.00
2018-10-09T00:07:24.750Z,0.00
2018-10-09T00:08:24.716Z,0.00
2018-10-09T00:09:24.643Z,0.00
2018-10-09T00:10:24.588Z,0.00
2018-10-09T00:11:24.532Z,0.00
2018-10-09T00:12:24.481Z,0.00
2018-10-09T00:13:24.448Z,0.00
2018-10-09T00:14:24.375Z,0.00
2018-10-09T00:15:24.320Z,0.00
2018-10-09T00:16:24.271Z,0.00
2018-10-09T00:17:24.219Z,0.00
2018-10-09T00:18:24.190Z,0.00
2018-10-09T00:19:24.112Z,0.00
2018-10-09T00:20:24.056Z,0.00
2018-10-09T00:21:24.003Z,0.00
2018-10-09T00:22:23.954Z,0.00
2018-10-09T00:23:23.925Z,0.00
2018-10-09T00:24:23.846Z,0.00
2018-10-09T00:25:23.810Z,0.00
2018-10-09T00:26:23.744Z,0.00
2018-10-09T00:27:23.698Z,0.00
2018-10-09T00:28:23.657Z,0.00
2018-10-09T00:29:23.584Z,0.00
2018-10-09T00:30:23.530Z,0.00
2018-10-09T00:31:23.477Z,0.00
2018-10-09T00:32:23.424Z,0.00
2018-10-09T00:33:23.394Z,0.00
2018-10-09T00:34:23.322Z,0.00
2018-10-09T00:35:23.271Z,0.00
2018-10-09T00:36:23.215Z,0.00
2018-10-09T00:37:23.172Z,0.00
2018-10-09T00:38:23.134Z,0.00
2018-10-09T00:39:23.056Z,0.00
2018-10-09T00:40:23.003Z,0.00
2018-10-09T00:41:22.950Z,0.00
2018-10-09T00:42:22.899Z,0.00
2018-10-09T00:43:22.870Z,0.00
2018-10-09T00:44:22.801Z,0.00
2018-10-09T00:45:22.745Z,0.00
2018-10-09T00:46:22.689Z,0.00
2018-10-09T00:47:22.638Z,0.00
2018-10-09T00:48:22.607Z,0.00
2018-10-09T00:49:22.534Z,0.00
2018-10-09T00:50:22.482Z,0.00
2018-10-09T00:51:22.427Z,0.00
2018-10-09T00:52:22.378Z,0.00
2018-10-09T00:53:22.344Z,0.00
2018-10-09T00:54:22.268Z,0.00
2018-10-09T00:55:22.216Z,0.00
2018-10-09T00:56:22.174Z,0.00
2018-10-09T00:57:22.113Z,0.00
2018-10-09T00:58:22.084Z,0.00
2018-10-09T00:59:22.003Z,0.00
2018-10-09T01:00:21.957Z,0.00
2018-10-09T01:01:21.906Z,0.00
2018-10-09T01:02:21.854Z,0.00
2018-10-09T01:03:21.831Z,0.00
2018-10-09T01:04:21.743Z,0.00
2018-10-09T01:05:21.688Z,0.00
2018-10-09T01:06:21.640Z,0.00
2018-10-09T01:07:21.591Z,0.00
2018-10-09T01:08:21.569Z,0.00
2018-10-09T01:09:21.485Z,0.00
2018-10-09T01:10:21.430Z,0.00
2018-10-09T01:11:21.379Z,0.00
2018-10-09T01:12:21.328Z,0.00
2018-10-09T01:13:21.271Z,0.00
2018-10-09T01:14:21.242Z,0.00
2018-10-09T01:15:21.166Z,0.00
2018-10-09T01:16:21.116Z,0.00
2018-10-09T01:17:21.062Z,0.00
2018-10-09T01:18:21.010Z,0.00
2018-10-09T01:19:20.981Z,0.00
2018-10-09T01:20:20.904Z,0.00
2018-10-09T01:21:20.852Z,0.00
2018-10-09T01:22:20.797Z,0.00
2018-10-09T01:23:20.751Z,0.00
2018-10-09T01:24:20.721Z,0.00
2018-10-09T01:25:20.644Z,0.00
2018-10-09T01:26:20.591Z,0.00
2018-10-09T01:27:20.538Z,0.00
2018-10-09T01:28:20.484Z,0.00
2018-10-09T01:29:20.462Z,0.00
2018-10-09T01:30:20.387Z,0.00
2018-10-09T01:31:20.324Z,0.00
2018-10-09T01:32:20.280Z,0.00
2018-10-09T01:33:20.226Z,0.00
2018-10-09T01:34:20.191Z,0.00
2018-10-09T01:35:20.119Z,0.00
2018-10-09T01:36:20.070Z,0.00
2018-10-09T01:37:20.015Z,0.00
2018-10-09T01:38:19.958Z,0.00
2018-10-09T01:39:19.934Z,0.00
2018-10-09T01:40:19.856Z,0.00
2018-10-09T01:41:19.802Z,0.00
2018-10-09T01:42:19.756Z,0.00
2018-10-09T01:43:19.694Z,0.00
2018-10-09T01:44:19.667Z,0.00
2018-10-09T01:45:19.594Z,0.00
2018-10-09T01:46:19.545Z,0.00
2018-10-09T01:47:19.487Z,0.00
2018-10-09T01:48:19.433Z,0.00
2018-10-09T01:49:19.406Z,0.00
2018-10-09T01:50:19.333Z,0.00
2018-10-09T01:51:19.274Z,0.00
2018-10-09T01:52:19.222Z,0.00
2018-10-09T01:53:19.167Z,0.00
2018-10-09T01:54:19.139Z,0.00
2018-10-09T01:55:19.069Z,0.00
2018-10-09T01:56:19.009Z,0.00
2018-10-09T01:57:18.957Z,0.00
2018-10-09T01:58:18.909Z,0.00
2018-10-09T01:59:18.877Z,0.00
2018-10-09T02:00:18.799Z,0.00
2018-10-09T02:01:18.749Z,0.00
2018-10-09T02:02:18.701Z,0.00
2018-10-09T02:03:18.642Z,0.00
2018-10-09T02:04:18.628Z,0.00
2018-10-09T02:05:18.539Z,0.00
2018-10-09T02:06:18.485Z,0.00
2018-10-09T02:07:18.433Z,0.00
2018-10-09T02:08:18.380Z,0.00
2018-10-09T02:09:18.334Z,0.00
2018-10-09T02:10:18.299Z,0.00
2018-10-09T02:11:18.222Z,0.00
2018-10-09T02:12:18.166Z,0.00
2018-10-09T02:13:18.116Z,0.00
2018-10-09T02:14:18.106Z,0.00
2018-10-09T02:15:18.035Z,0.00
2018-10-09T02:16:17.957Z,0.00
2018-10-09T02:17:17.907Z,0.00
2018-10-09T02:18:17.852Z,0.00
2018-10-09T02:19:17.800Z,0.00
2018-10-09T02:20:17.769Z,0.00
2018-10-09T02:21:17.693Z,0.00
2018-10-09T02:22:17.640Z,0.00
2018-10-09T02:23:17.593Z,0.00
2018-10-09T02:24:17.544Z,0.00
2018-10-09T02:25:17.505Z,0.00
2018-10-09T02:26:17.429Z,0.00
2018-10-09T02:27:17.377Z,0.00
2018-10-09T02:28:17.320Z,0.00
2018-10-09T02:29:17.267Z,0.00
2018-10-09T02:30:17.241Z,0.00
2018-10-09T02:31:17.161Z,0.00
2018-10-09T02:32:17.112Z,0.00
2018-10-09T02:33:17.058Z,0.00
2018-10-09T02:34:17.009Z,0.00
2018-10-09T02:35:16.978Z,0.00
2018-10-09T02:36:16.903Z,0.00
2018-10-09T02:37:16.848Z,0.00
2018-10-09T02:38:16.796Z,0.00
2018-10-09T02:39:16.747Z,0.00
2018-10-09T02:40:16.711Z,0.00
2018-10-09T02:41:16.632Z,0.00
2018-10-09T02:42:16.580Z,0.00
2018-10-09T02:43:16.529Z,0.00
2018-10-09T02:44:16.473Z,0.00
2018-10-09T02:45:16.447Z,0.00
2018-10-09T02:46:16.371Z,0.00
2018-10-09T02:47:16.318Z,0.00
2018-10-09T02:48:16.264Z,0.00
2018-10-09T02:49:16.208Z,0.00
2018-10-09T02:50:16.184Z,0.00
2018-10-09T02:51:16.105Z,0.00
2018-10-09T02:52:16.051Z,0.00
2018-10-09T02:53:15.999Z,0.00
2018-10-09T02:54:15.943Z,0.00
2018-10-09T02:55:15.936Z,0.00
2018-10-09T02:56:15.839Z,0.00
2018-10-09T02:57:15.789Z,0.00
2018-10-09T02:58:15.731Z,0.00
2018-10-09T02:59:15.683Z,0.00
2018-10-09T03:00:15.625Z,0.00
2018-10-09T03:01:15.594Z,0.00
2018-10-09T03:02:15.520Z,0.00
2018-10-09T03:03:15.467Z,0.00
2018-10-09T03:04:15.414Z,0.00
2018-10-09T03:05:15.364Z,0.00
2018-10-09T03:06:15.331Z,0.00
2018-10-09T03:07:15.254Z,0.00
2018-10-09T03:08:15.206Z,0.00
2018-10-09T03:09:15.150Z,0.00
2018-10-09T03:10:15.097Z,0.00
2018-10-09T03:11:15.065Z,0.00
2018-10-09T03:12:14.986Z,0.00
2018-10-09T03:13:14.939Z,0.00
2018-10-09T03:14:14.881Z,0.00
2018-10-09T03:15:14.833Z,0.00
2018-10-09T03:16:14.801Z,0.00
2018-10-09T03:17:14.728Z,0.00
2018-10-09T03:18:14.673Z,0.00
2018-10-09T03:19:14.620Z,0.00
2018-10-09T03:20:14.564Z,0.00
2018-10-09T03:21:14.534Z,0.00
2018-10-09T03:22:14.462Z,0.00
2018-10-09T03:23:14.407Z,0.00
2018-10-09T03:24:14.353Z,0.00
2018-10-09T03:25:14.302Z,0.00
2018-10-09T03:26:14.273Z,0.00
2018-10-09T03:27:14.191Z,0.00
2018-10-09T03:28:14.136Z,0.00
2018-10-09T03:29:14.095Z,0.00
2018-10-09T03:30:14.033Z,0.00
2018-10-09T03:31:14.004Z,0.00
2018-10-09T03:32:13.929Z,0.00
2018-10-09T03:33:13.875Z,0.00
2018-10-09T03:34:13.822Z,0.00
2018-10-09T03:35:13.766Z,0.00
2018-10-09T03:36:13.738Z,0.00
2018-10-09T03:37:13.662Z,0.00
2018-10-09T03:38:13.608Z,0.00
2018-10-09T03:39:13.555Z,0.00
2018-10-09T03:40:13.499Z,0.00
2018-10-09T03:41:13.470Z,0.00
2018-10-09T03:42:13.398Z,0.00
2018-10-09T03:43:13.406Z,0.00
2018-10-09T03:44:13.286Z,0.00
2018-10-09T03:45:13.232Z,0.00
2018-10-09T03:46:13.205Z,0.00
2018-10-09T03:47:13.140Z,0.00
2018-10-09T03:48:13.074Z,0.00
2018-10-09T03:49:13.022Z,0.00
2018-10-09T03:50:12.971Z,0.00
2018-10-09T03:51:12.941Z,0.00
2018-10-09T03:52:12.863Z,0.00
2018-10-09T03:53:12.806Z,0.00
2018-10-09T03:54:12.754Z,0.00
2018-10-09T03:55:12.707Z,0.00
2018-10-09T03:56:12.672Z,0.00
2018-10-09T03:57:12.605Z,0.00
2018-10-09T03:58:12.547Z,0.00
2018-10-09T03:59:12.499Z,0.00
2018-10-09T04:00:12.436Z,0.00
2018-10-09T04:01:12.425Z,0.00
2018-10-09T04:02:12.335Z,0.00
2018-10-09T04:03:12.283Z,0.00
2018-10-09T04:04:12.223Z,0.00
2018-10-09T04:05:12.169Z,0.00
2018-10-09T04:06:12.115Z,0.00
2018-10-09T04:07:12.089Z,0.00
2018-10-09T04:08:12.012Z,0.00
2018-10-09T04:09:12.041Z,0.00
2018-10-09T04:10:11.899Z,0.00
2018-10-09T04:11:11.849Z,0.00
2018-10-09T04:12:11.820Z,0.00
2018-10-09T04:13:11.747Z,0.00
2018-10-09T04:14:11.692Z,0.00
2018-10-09T04:15:11.641Z,0.00
2018-10-09T04:16:11.582Z,0.00
2018-10-09T04:17:11.557Z,0.00
2018-10-09T04:18:11.478Z,0.00
2018-10-09T04:19:11.423Z,0.00
2018-10-09T04:20:11.375Z,0.00
2018-10-09T04:21:11.322Z,0.00
2018-10-09T04:22:11.292Z,0.00
2018-10-09T04:23:11.210Z,0.00
2018-10-09T04:24:11.152Z,0.00
2018-10-09T04:25:11.108Z,0.00
2018-10-09T04:26:11.054Z,0.00
2018-10-09T04:27:11.018Z,0.00
2018-10-09T04:28:10.955Z,0.00
2018-10-09T04:29:10.891Z,0.00
2018-10-09T04:30:10.837Z,0.00
2018-10-09T04:31:10.785Z,0.00
2018-10-09T04:32:10.753Z,0.00
2018-10-09T04:33:10.682Z,0.00
2018-10-09T04:34:10.630Z,0.00
2018-10-09T04:35:10.594Z,0.00
2018-10-09T04:36:10.518Z,0.00
2018-10-09T04:37:10.487Z,0.00
2018-10-09T04:38:10.411Z,0.00
2018-10-09T04:39:10.358Z,0.00
2018-10-09T04:40:10.302Z,0.00
2018-10-09T04:41:10.246Z,0.00
2018-10-09T04:42:10.232Z,0.00
2018-10-09T04:43:10.146Z,0.00
2018-10-09T04:44:10.088Z,0.00
2018-10-09T04:45:10.038Z,0.00
2018-10-09T04:46:09.985Z,0.00
2018-10-09T04:47:09.933Z,0.00
2018-10-09T04:48:09.910Z,0.00
2018-10-09T04:49:09.832Z,0.00
2018-10-09T04:50:09.772Z,0.00
2018-10-09T04:51:09.721Z,0.00
2018-10-09T04:52:09.668Z,0.00
2018-10-09T04:53:09.730Z,0.00
2018-10-09T04:54:09.562Z,0.00
2018-10-09T04:55:09.511Z,0.00
2018-10-09T04:56:09.459Z,0.00
2018-10-09T04:57:09.399Z,0.00
2018-10-09T04:58:09.367Z,0.00
2018-10-09T04:59:09.297Z,0.00
2018-10-09T05:00:09.237Z,0.00
2018-10-09T05:01:09.186Z,0.00
2018-10-09T05:02:09.130Z,0.00
2018-10-09T05:03:09.103Z,0.00
2018-10-09T05:04:09.024Z,0.00
2018-10-09T05:05:08.976Z,0.00
2018-10-09T05:06:08.918Z,0.00
2018-10-09T05:07:08.866Z,0.00
2018-10-09T05:08:08.837Z,0.00
2018-10-09T05:09:08.767Z,0.00
2018-10-09T05:10:08.704Z,0.00
2018-10-09T05:11:08.650Z,0.00
2018-10-09T05:12:08.605Z,0.00
2018-10-09T05:13:08.576Z,0.00
2018-10-09T05:14:08.493Z,0.00
2018-10-09T05:15:08.439Z,0.00
2018-10-09T05:16:08.384Z,0.00
2018-10-09T05:17:08.353Z,0.00
2018-10-09T05:18:08.302Z,0.00
2018-10-09T05:19:08.228Z,0.00
2018-10-09T05:20:08.174Z,0.00
2018-10-09T05:21:08.123Z,0.00
2018-10-09T05:22:08.072Z,0.00
2018-10-09T05:23:08.061Z,0.00
2018-10-09T05:24:07.961Z,0.00
2018-10-09T05:25:07.904Z,0.00
2018-10-09T05:26:07.858Z,0.00
2018-10-09T05:27:07.801Z,0.00
2018-10-09T05:28:07.770Z,0.00
2018-10-09T05:29:07.691Z,0.00
2018-10-09T05:30:07.644Z,0.00
2018-10-09T05:31:07.608Z,0.00
2018-10-09T05:32:07.530Z,0.00
2018-10-09T05:33:07.517Z,0.00
2018-10-09T05:34:07.427Z,0.00
2018-10-09T05:35:07.374Z,0.00
2018-10-09T05:36:07.320Z,0.00
2018-10-09T05:37:07.265Z,0.00
2018-10-09T05:38:07.222Z,0.00
2018-10-09T05:39:07.183Z,0.00
2018-10-09T05:40:07.107Z,0.00
2018-10-09T05:41:07.086Z,0.00
2018-10-09T05:42:06.999Z,0.00
2018-10-09T05:43:06.950Z,0.00
2018-10-09T05:44:06.976Z,0.00
2018-10-09T05:45:06.837Z,0.00
2018-10-09T05:46:06.788Z,0.00
2018-10-09T05:47:06.731Z,0.00
2018-10-09T05:48:06.679Z,0.00
2018-10-09T05:49:06.649Z,0.00
2018-10-09T05:50:06.572Z,5.63
2018-10-09T05:51:06.521Z,5.63
2018-10-09T05:52:06.466Z,5.63
2018-10-09T05:53:06.414Z,5.63
2018-10-09T05:54:06.385Z,5.63
2018-10-09T05:55:06.307Z,5.63
2018-10-09T05:56:06.257Z,5.63
2018-10-09T05:57:06.202Z,5.63
2018-10-09T05:58:06.190Z,11.25
2018-10-09T05:59:06.116Z,11.25
2018-10-09T06:00:06.040Z,11.25
2018-10-09T06:01:05.990Z,11.25
2018-10-09T06:02:05.933Z,16.88
2018-10-09T06:03:05.881Z,16.88
2018-10-09T06:04:05.851Z,16.88
2018-10-09T06:05:05.773Z,16.88
2018-10-09T06:06:05.778Z,16.88
2018-10-09T06:07:05.669Z,16.88
2018-10-09T06:08:05.618Z,16.88
2018-10-09T06:09:05.591Z,16.88
2018-10-09T06:10:05.515Z,16.88
2018-10-09T06:11:05.455Z,16.88
2018-10-09T06:12:05.402Z,16.88
2018-10-09T06:13:05.346Z,16.88
2018-10-09T06:14:05.318Z,16.88
2018-10-09T06:15:05.246Z,16.88
2018-10-09T06:16:05.283Z,16.88
2018-10-09T06:17:05.136Z,22.50
2018-10-09T06:18:05.491Z,22.50
2018-10-09T06:19:05.053Z,22.50
2018-10-09T06:20:04.979Z,28.13
2018-10-09T06:21:04.921Z,28.13
2018-10-09T06:22:04.876Z,33.75
2018-10-09T06:23:04.815Z,33.75
2018-10-09T06:24:04.796Z,39.38
2018-10-09T06:25:04.710Z,39.38
2018-10-09T06:26:04.657Z,39.38
2018-10-09T06:27:04.620Z,45.00
2018-10-09T06:28:04.625Z,45.00
2018-10-09T06:29:04.495Z,45.00
2018-10-09T06:30:04.465Z,50.63
2018-10-09T06:31:04.394Z,50.63
2018-10-09T06:32:04.343Z,50.63
2018-10-09T06:33:04.281Z,50.63
2018-10-09T06:34:04.267Z,50.63
2018-10-09T06:35:04.205Z,45.00
2018-10-09T06:36:04.124Z,45.00
2018-10-09T06:37:04.074Z,45.00
2018-10-09T06:38:04.021Z,45.00
2018-10-09T06:39:03.970Z,50.63
2018-10-09T06:40:03.957Z,50.63
2018-10-09T06:41:03.861Z,50.63
2018-10-09T06:42:03.808Z,50.63
2018-10-09T06:43:03.759Z,50.63
2018-10-09T06:44:03.707Z,50.63
2018-10-09T06:45:03.673Z,50.63
2018-10-09T06:46:03.596Z,50.63
2018-10-09T06:47:03.544Z,50.63
2018-10-09T06:48:03.489Z,56.25
2018-10-09T06:49:03.435Z,56.25
2018-10-09T06:50:03.406Z,56.25
2018-10-09T06:51:03.337Z,56.25
2018-10-09T06:52:03.273Z,61.88
2018-10-09T06:53:03.220Z,61.88
2018-10-09T06:54:03.352Z,67.50
2018-10-09T06:55:03.143Z,67.50
2018-10-09T06:56:03.064Z,67.50
2018-10-09T06:57:03.013Z,61.88
2018-10-09T06:58:02.959Z,67.50
2018-10-09T06:59:02.907Z,67.50
2018-10-09T07:00:02.902Z,73.13
2018-10-09T07:01:02.803Z,73.13
2018-10-09T07:02:02.753Z,73.13
2018-10-09T07:03:02.717Z,78.75
2018-10-09T07:04:02.640Z,90.00
2018-10-09T07:05:02.617Z,95.63
2018-10-09T07:06:02.541Z,101.25
2018-10-09T07:07:02.484Z,112.50
2018-10-09T07:08:02.437Z,112.50
2018-10-09T07:09:02.385Z,101.25
2018-10-09T07:10:02.359Z,90.00
2018-10-09T07:11:02.309Z,73.13
2018-10-09T07:12:02.225Z,56.25
2018-10-09T07:13:02.175Z,56.25
2018-10-09T07:14:02.117Z,56.25
2018-10-09T07:15:02.091Z,56.25
2018-10-09T07:16:02.014Z,56.25
2018-10-09T07:17:01.968Z,50.63
2018-10-09T07:18:01.919Z,50.63
2018-10-09T07:19:01.864Z,56.25
2018-10-09T07:20:01.848Z,56.25
2018-10-09T07:21:01.757Z,56.25
2018-10-09T07:22:01.706Z,61.88
2018-10-09T07:23:01.645Z,61.88
2018-10-09T07:24:01.596Z,61.88
2018-10-09T07:25:01.594Z,73.13
2018-10-09T07:26:01.489Z,78.75
2018-10-09T07:27:01.444Z,73.13
2018-10-09T07:28:01.394Z,67.50
2018-10-09T07:29:01.346Z,67.50
2018-10-09T07:30:01.286Z,67.50
2018-10-09T07:31:01.291Z,78.75
2018-10-09T07:32:01.185Z,95.63
2018-10-09T07:33:01.131Z,101.25
2018-10-09T07:34:01.074Z,90.00
2018-10-09T07:35:01.023Z,78.75
2018-10-09T07:36:00.998Z,73.13
2018-10-09T07:37:00.920Z,73.13
2018-10-09T07:38:00.866Z,67.50
2018-10-09T07:39:00.817Z,67.50
2018-10-09T07:40:00.767Z,67.50
2018-10-09T07:41:00.735Z,67.50
2018-10-09T07:42:00.666Z,67.50
2018-10-09T07:43:00.616Z,67.50
2018-10-09T07:44:00.649Z,73.13
2018-10-09T07:45:00.511Z,84.38
2018-10-09T07:46:00.480Z,90.00
2018-10-09T07:47:00.407Z,95.63
2018-10-09T07:48:00.353Z,95.63
2018-10-09T07:49:00.302Z,95.63
2018-10-09T07:50:00.252Z,101.25
2018-10-09T07:51:00.221Z,101.25
2018-10-09T07:52:00.149Z,106.88
2018-10-09T07:53:00.155Z,106.88
2018-10-09T07:54:00.043Z,112.50
2018-10-09T07:54:59.994Z,123.75
2018-10-09T07:55:59.969Z,129.38
2018-10-09T07:56:59.894Z,140.63
2018-10-09T07:57:59.842Z,146.25
2018-10-09T07:58:59.791Z,151.88
2018-10-09T07:59:59.748Z,140.63
2018-10-09T08:00:59.713Z,123.75
2018-10-09T08:01:59.634Z,112.50
2018-10-09T08:02:59.593Z,106.88
2018-10-09T08:03:59.538Z,106.88
2018-10-09T08:04:59.483Z,101.25
2018-10-09T08:05:59.455Z,101.25
2018-10-09T08:06:59.387Z,95.63
2018-10-09T08:07:59.330Z,95.63
2018-10-09T08:08:59.278Z,95.63
2018-10-09T08:09:59.232Z,90.00
2018-10-09T08:10:59.310Z,84.38
2018-10-09T08:11:59.134Z,90.00
2018-10-09T08:12:59.082Z,90.00
2018-10-09T08:13:59.036Z,95.63
2018-10-09T08:14:58.977Z,101.25
2018-10-09T08:15:58.947Z,112.50
2018-10-09T08:16:58.879Z,112.50
2018-10-09T08:17:58.831Z,118.13
2018-10-09T08:18:58.774Z,118.13
2018-10-09T08:19:58.727Z,118.13
2018-10-09T08:20:58.704Z,123.75
2018-10-09T08:21:58.624Z,112.50
2018-10-09T08:22:58.687Z,106.88
2018-10-09T08:23:58.526Z,106.88
2018-10-09T08:24:58.474Z,106.88
2018-10-09T08:25:58.448Z,112.50
2018-10-09T08:26:58.370Z,101.25
2018-10-09T08:27:58.372Z,106.88
2018-10-09T08:28:58.275Z,123.75
2018-10-09T08:29:58.222Z,140.63
2018-10-09T08:30:58.200Z,151.88
2018-10-09T08:31:58.122Z,157.50
2018-10-09T08:32:58.073Z,174.38
2018-10-09T08:33:58.023Z,185.63
2018-10-09T08:34:57.978Z,191.25
2018-10-09T08:35:57.945Z,191.25
2018-10-09T08:36:57.869Z,185.63
2018-10-09T08:37:57.824Z,168.75
2018-10-09T08:38:57.773Z,163.13
2018-10-09T08:39:57.724Z,151.88
2018-10-09T08:40:57.697Z,157.50
2018-10-09T08:41:57.624Z,151.88
2018-10-09T08:42:57.571Z,157.50
2018-10-09T08:43:57.526Z,157.50
2018-10-09T08:44:57.472Z,163.13
2018-10-09T08:45:57.453Z,163.13
2018-10-09T08:46:57.377Z,168.75
2018-10-09T08:47:57.323Z,168.75
2018-10-09T08:48:57.275Z,157.50
2018-10-09T08:49:57.226Z,157.50
2018-10-09T08:50:57.208Z,151.88
2018-10-09T08:51:57.235Z,151.88
2018-10-09T08:52:57.074Z,157.50
2018-10-09T08:53:57.024Z,129.38
2018-10-09T08:54:56.976Z,118.13
2018-10-09T08:55:56.968Z,118.13
2018-10-09T08:56:56.878Z,118.13
2018-10-09T08:57:56.824Z,118.13
2018-10-09T08:58:56.786Z,112.50
2018-10-09T08:59:56.728Z,106.88
2018-10-09T09:00:56.688Z,101.25
2018-10-09T09:01:56.655Z,84.38
2018-10-09T09:02:56.590Z,84.38
2018-10-09T09:03:56.529Z,78.75
2018-10-09T09:04:56.483Z,78.75
2018-10-09T09:05:56.437Z,67.50
2018-10-09T09:06:56.408Z,67.50
2018-10-09T09:07:56.348Z,67.50
2018-10-09T09:08:56.291Z,73.13
2018-10-09T09:09:56.233Z,84.38
2018-10-09T09:10:56.190Z,90.00
2018-10-09T09:11:56.163Z,95.63
2018-10-09T09:12:56.088Z,101.25
2018-10-09T09:13:56.078Z,90.00
2018-10-09T09:14:55.990Z,90.00
2018-10-09T09:15:55.945Z,95.63
2018-10-09T09:16:55.922Z,95.63
2018-10-09T09:17:55.838Z,84.38
2018-10-09T09:18:55.792Z,73.13
2018-10-09T09:19:55.740Z,78.75
2018-10-09T09:20:55.778Z,90.00
2018-10-09T09:21:55.674Z,101.25
2018-10-09T09:22:55.595Z,101.25
2018-10-09T09:23:55.541Z,112.50
2018-10-09T09:24:55.502Z,129.38
2018-10-09T09:25:55.452Z,129.38
2018-10-09T09:26:55.452Z,129.38
2018-10-09T09:27:55.347Z,129.38
2018-10-09T09:28:55.302Z,129.38
2018-10-09T09:29:55.249Z,129.38
2018-10-09T09:30:55.201Z,129.38
2018-10-09T09:31:55.176Z,129.38
2018-10-09T09:32:55.104Z,129.38
2018-10-09T09:33:55.054Z,123.75
2018-10-09T09:34:55.012Z,118.13
2018-10-09T09:35:54.958Z,118.13
2018-10-09T09:36:54.935Z,118.13
2018-10-09T09:37:54.862Z,118.13
2018-10-09T09:38:54.834Z,123.75
2018-10-09T09:39:54.756Z,123.75
2018-10-09T09:40:54.707Z,112.50
2018-10-09T09:41:54.685Z,118.13
2018-10-09T09:42:54.612Z,123.75
2018-10-09T09:43:54.559Z,123.75
2018-10-09T09:44:54.510Z,129.38
2018-10-09T09:45:54.592Z,135.00
2018-10-09T09:46:54.439Z,135.00
2018-10-09T09:47:54.361Z,140.63
2018-10-09T09:48:54.310Z,146.25
2018-10-09T09:49:54.266Z,151.88
2018-10-09T09:50:54.217Z,151.88
2018-10-09T09:51:54.259Z,146.25
2018-10-09T09:52:54.118Z,146.25
2018-10-09T09:53:54.079Z,140.63
2018-10-09T09:54:54.020Z,135.00
2018-10-09T09:55:53.973Z,135.00
2018-10-09T09:56:53.942Z,129.38
2018-10-09T09:57:53.919Z,123.75
2018-10-09T09:58:54.020Z,118.13
2018-10-09T09:59:53.777Z,118.13
2018-10-09T10:00:53.723Z,118.13
2018-10-09T10:01:53.699Z,112.50
2018-10-09T10:02:53.625Z,106.88
2018-10-09T10:03:53.577Z,101.25
2018-10-09T10:04:53.532Z,101.25
2018-10-09T10:05:53.480Z,106.88
2018-10-09T10:06:53.456Z,106.88
2018-10-09T10:07:53.391Z,101.25
2018-10-09T10:08:53.336Z,95.63
2018-10-09T10:09:53.288Z,101.25
2018-10-09T10:10:53.238Z,101.25
2018-10-09T10:11:53.212Z,84.38
2018-10-09T10:12:53.143Z,73.13
2018-10-09T10:13:53.094Z,73.13
2018-10-09T10:14:53.051Z,73.13
2018-10-09T10:15:53.052Z,78.75
2018-10-09T10:16:52.967Z,73.13
2018-10-09T10:17:52.898Z,67.50
2018-10-09T10:18:52.849Z,67.50
2018-10-09T10:19:52.796Z,61.88
2018-10-09T10:20:52.749Z,67.50
2018-10-09T10:21:52.743Z,73.13
2018-10-09T10:22:52.649Z,84.38
2018-10-09T10:23:52.604Z,101.25
2018-10-09T10:24:52.565Z,106.88
2018-10-09T10:25:52.508Z,106.88
2018-10-09T10:26:52.457Z,112.50
2018-10-09T10:27:52.431Z,112.50
2018-10-09T10:28:52.362Z,112.50
2018-10-09T10:29:52.309Z,118.13
2018-10-09T10:30:52.256Z,118.13
2018-10-09T10:31:52.217Z,118.13
2018-10-09T10:32:52.190Z,118.13
2018-10-09T10:33:52.118Z,118.13
2018-10-09T10:34:52.065Z,118.13
2018-10-09T10:35:52.018Z,118.13
2018-10-09T10:36:52.023Z,118.13
2018-10-09T10:37:51.946Z,118.13
2018-10-09T10:38:51.876Z,118.13
2018-10-09T10:39:51.826Z,118.13
2018-10-09T10:40:51.774Z,118.13
2018-10-09T10:41:51.725Z,118.13
2018-10-09T10:42:51.700Z,118.13
2018-10-09T10:43:51.631Z,118.13
2018-10-09T10:44:51.589Z,118.13
2018-10-09T10:45:51.537Z,118.13
2018-10-09T10:46:51.486Z,118.13
2018-10-09T10:47:51.454Z,118.13
2018-10-09T10:48:51.405Z,118.13
2018-10-09T10:49:51.339Z,118.13
2018-10-09T10:50:51.287Z,123.75
2018-10-09T10:51:51.237Z,123.75
2018-10-09T10:52:51.226Z,123.75
2018-10-09T10:53:51.139Z,123.75
2018-10-09T10:54:51.104Z,123.75
2018-10-09T10:55:51.045Z,123.75
2018-10-09T10:56:51.002Z,129.38
2018-10-09T10:57:50.971Z,123.75
2018-10-09T10:58:50.899Z,123.75
2018-10-09T10:59:50.848Z,118.13
2018-10-09T11:00:50.805Z,112.50
2018-10-09T11:01:50.799Z,112.50
2018-10-09T11:02:50.730Z,112.50
2018-10-09T11:03:50.653Z,112.50
2018-10-09T11:04:50.609Z,112.50
2018-10-09T11:05:50.558Z,112.50
2018-10-09T11:06:50.509Z,118.13
2018-10-09T11:07:50.492Z,118.13
2018-10-09T11:08:50.413Z,118.13
2018-10-09T11:09:50.365Z,123.75
2018-10-09T11:10:50.316Z,129.38
2018-10-09T11:11:50.382Z,135.00
2018-10-09T11:12:50.246Z,135.00
2018-10-09T11:13:50.168Z,140.63
2018-10-09T11:14:50.214Z,146.25
2018-10-09T11:15:50.076Z,157.50
2018-10-09T11:16:50.080Z,163.13
2018-10-09T11:17:49.998Z,168.75
2018-10-09T11:18:49.928Z,174.38
2018-10-09T11:19:49.877Z,168.75
2018-10-09T11:20:49.830Z,168.75
2018-10-09T11:21:49.787Z,168.75
2018-10-09T11:22:49.760Z,163.13
2018-10-09T11:23:49.688Z,157.50
2018-10-09T11:24:49.638Z,157.50
2018-10-09T11:25:49.593Z,157.50
2018-10-09T11:26:49.541Z,157.50
2018-10-09T11:27:49.519Z,157.50
2018-10-09T11:28:49.450Z,163.13
2018-10-09T11:29:49.399Z,168.75
2018-10-09T11:30:49.350Z,168.75
2018-10-09T11:31:49.298Z,168.75
2018-10-09T11:32:49.275Z,168.75
2018-10-09T11:33:49.205Z,174.38
2018-10-09T11:34:49.160Z,174.38
2018-10-09T11:35:49.109Z,174.38
2018-10-09T11:36:49.066Z,174.38
2018-10-09T11:37:49.034Z,180.00
2018-10-09T11:38:48.964Z,180.00
2018-10-09T11:39:48.915Z,180.00
2018-10-09T11:40:48.869Z,180.00
2018-10-09T11:41:48.821Z,180.00
2018-10-09T11:42:48.798Z,185.63
2018-10-09T11:43:48.738Z,174.38
2018-10-09T11:44:48.675Z,168.75
2018-10-09T11:45:48.632Z,168.75
2018-10-09T11:46:48.581Z,174.38
2018-10-09T11:47:48.553Z,174.38
2018-10-09T11:48:48.490Z,168.75
2018-10-09T11:49:48.442Z,168.75
2018-10-09T11:50:48.393Z,163.13
2018-10-09T11:51:48.344Z,163.13
2018-10-09T11:52:48.331Z,163.13
2018-10-09T11:53:48.246Z,157.50
2018-10-09T11:54:48.203Z,151.88
2018-10-09T11:55:48.149Z,151.88
2018-10-09T11:56:48.103Z,146.25
2018-10-09T11:57:48.057Z,146.25
2018-10-09T11:58:48.034Z,146.25
2018-10-09T11:59:47.962Z,146.25
2018-10-09T12:00:47.910Z,146.25
2018-10-09T12:01:47.865Z,140.63
2018-10-09T12:02:47.827Z,140.63
2018-10-09T12:03:47.790Z,140.63
2018-10-09T12:04:47.723Z,140.63
2018-10-09T12:05:47.712Z,146.25
2018-10-09T12:06:47.629Z,146.25
2018-10-09T12:07:47.576Z,146.25
2018-10-09T12:08:47.557Z,146.25
2018-10-09T12:09:47.482Z,146.25
2018-10-09T12:10:47.436Z,146.25
2018-10-09T12:11:47.386Z,146.25
2018-10-09T12:12:47.339Z,146.25
2018-10-09T12:13:47.320Z,146.25
2018-10-09T12:14:47.241Z,140.63
2018-10-09T12:15:47.235Z,140.63
2018-10-09T12:16:47.152Z,140.63
2018-10-09T12:17:47.100Z,135.00
2018-10-09T12:18:47.076Z,135.00
2018-10-09T12:19:47.001Z,140.63
2018-10-09T12:20:46.954Z,140.63
2018-10-09T12:21:46.907Z,140.63
2018-10-09T12:22:46.860Z,146.25
2018-10-09T12:23:46.837Z,146.25
2018-10-09T12:24:46.769Z,151.88
2018-10-09T12:25:46.715Z,157.50
2018-10-09T12:26:46.670Z,157.50
2018-10-09T12:27:46.623Z,163.13
2018-10-09T12:28:46.600Z,163.13
2018-10-09T12:29:46.526Z,168.75
2018-10-09T12:30:46.482Z,168.75
2018-10-09T12:31:46.429Z,174.38
2018-10-09T12:32:46.422Z,174.38
2018-10-09T12:33:46.359Z,174.38
2018-10-09T12:34:46.306Z,174.38
2018-10-09T12:35:46.243Z,174.38
2018-10-09T12:36:46.193Z,168.75
2018-10-09T12:37:46.151Z,168.75
2018-10-09T12:38:46.125Z,163.13
2018-10-09T12:39:46.052Z,157.50
2018-10-09T12:40:46.002Z,151.88
2018-10-09T12:41:45.958Z,146.25
2018-10-09T12:42:45.907Z,140.63
2018-10-09T12:43:45.937Z,135.00
2018-10-09T12:44:45.816Z,129.38
2018-10-09T12:45:45.766Z,129.38
2018-10-09T12:46:45.727Z,123.75
2018-10-09T12:47:45.668Z,118.13
2018-10-09T12:48:45.645Z,112.50
2018-10-09T12:49:45.576Z,112.50
2018-10-09T12:50:45.528Z,106.88
2018-10-09T12:51:45.481Z,106.88
2018-10-09T12:52:45.447Z,106.88
2018-10-09T12:53:45.409Z,101.25
2018-10-09T12:54:45.346Z,95.63